Time;durP1;ratioP1;P1;durP2;ratioP2;P2;SDS_P1;SDS_P2;PMS_P1;PMS_P2;Temp;Humidity;BMP_temperature;BMP_pressure;BME280_temperature;BME280_humidity;BME280_pressure;Samples;Min_cycle;Max_cycle;Signal;HPM_P1;HPM_P2
2023/05/30 00:01:51;;;;;;;5.28;2.58;;;;;;;;;;5033465;28;20475;-77
2023/05/30 00:04:17;;;;;;;5.95;2.47;;;;;;;;;;5033950;28;20053;-76
2023/05/30 00:06:43;;;;;;;6.18;2.83;;;;;;;;;;5033685;28;20032;-77
2023/05/30 00:09:09;;;;;;;10.07;3.13;;;;;;;;;;5033002;28;20029;-77
2023/05/30 00:11:35;;;;;;;5.65;2.83;;;;;;;;;;5033785;28;20541;-77
2023/05/30 00:14:02;;;;;;;6.00;3.22;;;;;;;;;;5033634;28;20037;-78
2023/05/30 00:16:29;;;;;;;6.72;2.60;;;;;;;;;;5033391;28;20083;-77
2023/05/30 00:18:56;;;;;;;5.28;2.72;;;;;;;;;;5032634;28;20040;-77
2023/05/30 00:21:22;;;;;;;6.20;2.58;;;;;;;;;;5033692;28;20017;-77
2023/05/30 00:23:49;;;;;;;6.75;3.13;;;;;;;;;;5033442;28;20610;-77
2023/05/30 00:26:15;;;;;;;7.15;3.15;;;;;;;;;;5033569;28;20040;-77
2023/05/30 00:28:42;;;;;;;7.53;2.95;;;;;;;;;;5032570;28;20083;-77
2023/05/30 00:31:08;;;;;;;8.73;3.45;;;;;;;;;;5033240;28;20029;-76
2023/05/30 00:33:34;;;;;;;5.90;3.03;;;;;;;;;;5014144;28;20147;-74
2023/05/30 00:36:00;;;;;;;6.05;2.85;;;;;;;;;;5033157;28;20570;-74
2023/05/30 00:38:26;;;;;;;5.10;2.42;;;;;;;;;;5032178;28;20109;-75
2023/05/30 00:40:52;;;;;;;5.20;2.70;;;;;;;;;;5032864;28;20029;-76
2023/05/30 00:43:18;;;;;;;7.43;3.20;;;;;;;;;;5033001;28;20049;-76
2023/05/30 00:45:45;;;;;;;6.03;2.35;;;;;;;;;;5032989;28;20049;-76
2023/05/30 00:48:11;;;;;;;6.32;2.70;;;;;;;;;;5032371;28;20021;-76
2023/05/30 00:50:38;;;;;;;7.95;3.53;;;;;;;;;;5032797;28;20060;-76
2023/05/30 00:53:05;;;;;;;6.35;2.97;;;;;;;;;;5033501;28;20032;-76
2023/05/30 00:55:31;;;;;;;6.95;2.92;;;;;;;;;;5033770;28;20018;-76
2023/05/30 00:57:57;;;;;;;5.60;3.00;;;;;;;;;;5032505;28;20488;-75
2023/05/30 01:00:25;;;;;;;7.60;2.85;;;;;;;;;;5032681;28;20061;-75
2023/05/30 01:02:51;;;;;;;6.85;3.05;;;;;;;;;;5014815;28;20083;-75
2023/05/30 01:05:19;;;;;;;8.25;3.20;;;;;;;;;;5032564;28;20020;-75
2023/05/30 01:07:45;;;;;;;6.25;3.13;;;;;;;;;;5032106;28;20042;-75
2023/05/30 01:10:12;;;;;;;6.47;2.95;;;;;;;;;;5014426;28;20074;-75
2023/05/30 01:12:47;;;;;;;5.38;2.50;;;;;;;;;;5014464;28;20025;-75
2023/05/30 01:15:42;;;;;;;5.43;2.72;;;;;;;;;;5032346;28;20428;-76
2023/05/30 01:18:14;;;;;;;6.97;2.67;;;;;;;;;;5010518;28;20095;-75
2023/05/30 01:20:44;;;;;;;;;;;;;;;;;;5069919;23;20055;-71
2023/05/30 01:23:30;;;;;;;5.50;2.67;;;;;;;;;;5029259;28;20016;-72
2023/05/30 01:26:05;;;;;;;8.48;3.10;;;;;;;;;;5021383;28;20665;-72
2023/05/30 01:28:33;;;;;;;7.85;3.03;;;;;;;;;;4999789;28;20030;-72
2023/05/30 01:30:59;;;;;;;6.75;3.33;;;;;;;;;;5028233;28;20025;-72
2023/05/30 01:33:26;;;;;;;8.15;3.55;;;;;;;;;;5017037;28;20021;-72
2023/05/30 01:35:52;;;;;;;7.32;3.70;;;;;;;;;;5023261;28;20105;-73
2023/05/30 01:38:18;;;;;;;10.80;3.25;;;;;;;;;;5023462;28;20033;-72
2023/05/30 01:40:49;;;;;;;4.55;2.78;;;;;;;;;;5016016;28;20029;-73
2023/05/30 01:43:20;;;;;;;8.23;3.03;;;;;;;;;;5028205;28;20112;-72
2023/05/30 01:45:50;;;;;;;8.52;3.10;;;;;;;;;;5019238;28;20022;-73
2023/05/30 01:48:22;;;;;;;6.55;2.90;;;;;;;;;;5019052;28;20022;-73
2023/05/30 01:50:49;;;;;;;10.57;3.60;;;;;;;;;;5019950;28;20385;-73
2023/05/30 01:53:20;;;;;;;6.47;2.50;;;;;;;;;;5015549;28;20021;-72
2023/05/30 01:55:46;;;;;;;9.80;3.17;;;;;;;;;;5024104;28;20105;-72
2023/05/30 01:58:14;;;;;;;8.73;3.20;;;;;;;;;;5022248;28;20164;-72
2023/05/30 02:00:40;;;;;;;7.10;2.97;;;;;;;;;;5016114;28;20026;-71
2023/05/30 02:03:06;;;;;;;6.97;3.20;;;;;;;;;;5027802;28;20017;-72
2023/05/30 02:05:32;;;;;;;13.13;3.95;;;;;;;;;;5017445;28;20014;-72
2023/05/30 02:07:58;;;;;;;10.18;3.28;;;;;;;;;;5021564;28;20033;-73
2023/05/30 02:10:24;;;;;;;5.95;3.00;;;;;;;;;;5024447;28;20029;-72
2023/05/30 02:12:50;;;;;;;6.15;2.92;;;;;;;;;;5014707;28;20459;-72
2023/05/30 02:15:16;;;;;;;11.93;3.65;;;;;;;;;;5027569;28;20022;-72
2023/05/30 02:17:42;;;;;;;7.00;3.22;;;;;;;;;;5000066;28;20108;-72
2023/05/30 02:20:09;;;;;;;9.15;3.10;;;;;;;;;;5020273;28;20069;-72
2023/05/30 02:22:35;;;;;;;7.47;2.78;;;;;;;;;;5025515;28;20025;-72
2023/05/30 02:25:02;;;;;;;10.00;3.53;;;;;;;;;;5014812;28;20097;-73
2023/05/30 02:27:28;;;;;;;9.75;3.38;;;;;;;;;;5025217;28;20030;-72
2023/05/30 02:29:54;;;;;;;8.73;3.40;;;;;;;;;;5019833;28;20025;-72
2023/05/30 02:32:20;;;;;;;7.93;3.55;;;;;;;;;;5019099;28;20018;-73
2023/05/30 02:34:46;;;;;;;9.27;3.88;;;;;;;;;;5027070;28;20032;-73
2023/05/30 02:37:12;;;;;;;8.85;3.55;;;;;;;;;;5014092;28;20021;-72
2023/05/30 02:39:38;;;;;;;9.63;3.72;;;;;;;;;;5028185;28;20029;-72
2023/05/30 02:42:05;;;;;;;5.78;3.28;;;;;;;;;;5025226;28;20014;-72
2023/05/30 02:44:31;;;;;;;16.13;3.15;;;;;;;;;;5016821;28;20145;-72
2023/05/30 02:46:57;;;;;;;7.43;3.25;;;;;;;;;;5009716;28;20120;-71
2023/05/30 02:49:23;;;;;;;10.50;3.60;;;;;;;;;;4998483;28;20105;-73
2023/05/30 02:51:49;;;;;;;6.70;3.22;;;;;;;;;;5024628;28;20018;-73
2023/05/30 02:54:15;;;;;;;9.43;3.50;;;;;;;;;;5022654;28;20028;-72
2023/05/30 02:56:41;;;;;;;8.90;3.25;;;;;;;;;;5016986;28;20022;-72
2023/05/30 02:59:08;;;;;;;6.38;3.47;;;;;;;;;;5030197;28;20026;-72
2023/05/30 03:01:34;;;;;;;11.75;3.55;;;;;;;;;;5021148;28;20017;-72
2023/05/30 03:04:00;;;;;;;6.32;3.30;;;;;;;;;;5025152;28;20018;-73
2023/05/30 03:06:27;;;;;;;6.05;3.60;;;;;;;;;;5028154;28;20022;-72
2023/05/30 03:08:57;;;;;;;11.02;3.65;;;;;;;;;;5017310;28;20081;-72
2023/05/30 03:11:23;;;;;;;7.72;3.90;;;;;;;;;;5030199;28;20033;-72
2023/05/30 03:13:50;;;;;;;7.55;3.38;;;;;;;;;;5020047;28;20057;-73
2023/05/30 03:16:16;;;;;;;7.68;3.55;;;;;;;;;;5034083;28;20054;-73
2023/05/30 03:18:42;;;;;;;8.35;4.20;;;;;;;;;;5032794;28;20030;-72
2023/05/30 03:21:10;;;;;;;11.15;4.25;;;;;;;;;;5031386;28;20495;-72
2023/05/30 03:23:36;;;;;;;8.07;3.88;;;;;;;;;;5033509;28;20014;-72
2023/05/30 03:26:03;;;;;;;7.70;4.22;;;;;;;;;;5032814;28;20040;-72
2023/05/30 03:28:29;;;;;;;7.43;3.88;;;;;;;;;;5019888;28;20026;-73
2023/05/30 03:30:55;;;;;;;10.95;4.45;;;;;;;;;;5033024;28;20032;-73
2023/05/30 03:33:22;;;;;;;10.10;4.30;;;;;;;;;;5023422;28;20025;-72
2023/05/30 03:35:48;;;;;;;8.35;3.67;;;;;;;;;;5017136;28;20029;-73
2023/05/30 03:38:14;;;;;;;9.68;4.00;;;;;;;;;;5025492;28;20057;-72
2023/05/30 03:40:41;;;;;;;8.50;3.92;;;;;;;;;;5033585;28;20021;-73
2023/05/30 03:43:07;;;;;;;7.72;3.88;;;;;;;;;;5017681;28;20029;-73
2023/05/30 03:45:33;;;;;;;8.90;4.32;;;;;;;;;;5028361;28;20022;-73
2023/05/30 03:47:59;;;;;;;11.23;3.95;;;;;;;;;;5022702;28;20523;-74
2023/05/30 03:50:25;;;;;;;8.88;4.38;;;;;;;;;;5020298;28;20030;-73
2023/05/30 03:52:51;;;;;;;9.48;4.43;;;;;;;;;;5028579;28;20087;-73
2023/05/30 03:55:17;;;;;;;9.98;4.13;;;;;;;;;;5016606;28;20029;-73
2023/05/30 03:57:43;;;;;;;7.63;4.10;;;;;;;;;;5024855;28;20032;-73
2023/05/30 04:00:09;;;;;;;10.63;4.18;;;;;;;;;;5023247;28;20017;-72
2023/05/30 04:02:35;;;;;;;11.50;4.28;;;;;;;;;;5031520;28;20028;-72
2023/05/30 04:05:01;;;;;;;8.65;3.72;;;;;;;;;;5016486;28;20018;-72
2023/05/30 04:07:27;;;;;;;8.07;4.10;;;;;;;;;;5027431;28;20022;-72
2023/05/30 04:09:53;;;;;;;6.47;3.90;;;;;;;;;;5021756;28;20479;-73
2023/05/30 04:12:19;;;;;;;7.90;4.13;;;;;;;;;;5002772;28;20509;-72
2023/05/30 04:14:45;;;;;;;7.82;4.00;;;;;;;;;;5024226;28;20080;-73
2023/05/30 04:17:11;;;;;;;10.50;4.00;;;;;;;;;;5027308;28;20026;-73
2023/05/30 04:19:37;;;;;;;10.35;4.28;;;;;;;;;;5018944;28;20060;-73
2023/05/30 04:22:03;;;;;;;7.07;3.40;;;;;;;;;;5023169;28;20014;-73
2023/05/30 04:24:29;;;;;;;6.93;3.40;;;;;;;;;;5026535;28;20037;-72
2023/05/30 04:26:57;;;;;;;7.10;4.00;;;;;;;;;;4997866;28;20045;-73
2023/05/30 04:29:23;;;;;;;13.20;4.63;;;;;;;;;;5028187;28;20041;-73
2023/05/30 04:31:49;;;;;;;9.63;3.95;;;;;;;;;;5021621;28;20021;-74
2023/05/30 04:34:17;;;;;;;11.07;3.90;;;;;;;;;;5024517;28;20102;-73
2023/05/30 04:36:44;;;;;;;12.68;4.20;;;;;;;;;;5028764;28;20018;-73
2023/05/30 04:39:11;;;;;;;11.90;4.55;;;;;;;;;;5015370;28;20041;-73
2023/05/30 04:41:37;;;;;;;9.43;3.92;;;;;;;;;;5026277;28;20025;-73
2023/05/30 04:44:03;;;;;;;8.82;3.65;;;;;;;;;;5020762;28;20400;-73
2023/05/30 04:46:30;;;;;;;13.55;3.90;;;;;;;;;;5026662;28;20033;-73
2023/05/30 04:48:58;;;;;;;8.73;4.10;;;;;;;;;;4997294;28;20037;-72
2023/05/30 04:51:24;;;;;;;11.15;3.67;;;;;;;;;;5027112;28;20029;-73
2023/05/30 04:53:51;;;;;;;13.65;3.60;;;;;;;;;;5019933;28;20021;-72
2023/05/30 04:56:17;;;;;;;9.80;3.40;;;;;;;;;;5020982;28;20026;-72
2023/05/30 04:58:48;;;;;;;8.82;3.28;;;;;;;;;;5008664;28;20025;-72
2023/05/30 05:01:14;;;;;;;8.23;2.80;;;;;;;;;;5016198;28;20044;-73
2023/05/30 05:03:40;;;;;;;13.35;3.75;;;;;;;;;;5025587;28;20498;-72
2023/05/30 05:06:07;;;;;;;10.77;3.67;;;;;;;;;;5022959;28;20024;-72
2023/05/30 05:08:35;;;;;;;9.00;3.00;;;;;;;;;;5017565;28;20030;-72
2023/05/30 05:11:03;;;;;;;9.13;3.25;;;;;;;;;;5029020;28;20110;-72
2023/05/30 05:13:29;;;;;;;7.45;3.55;;;;;;;;;;5018092;28;20017;-73
2023/05/30 05:15:55;;;;;;;6.30;3.13;;;;;;;;;;5023604;28;20022;-73
2023/05/30 05:18:21;;;;;;;10.48;3.38;;;;;;;;;;5006936;28;20108;-73
2023/05/30 05:20:48;;;;;;;10.57;3.40;;;;;;;;;;5015068;28;20037;-73
2023/05/30 05:23:14;;;;;;;12.70;3.95;;;;;;;;;;5028649;28;20101;-74
2023/05/30 05:25:40;;;;;;;10.07;3.47;;;;;;;;;;5019376;28;20538;-74
2023/05/30 05:28:06;;;;;;;9.15;3.03;;;;;;;;;;5021203;28;20403;-74
2023/05/30 05:30:32;;;;;;;6.28;3.30;;;;;;;;;;5025938;28;20025;-73
2023/05/30 05:32:58;;;;;;;8.52;3.22;;;27.70;30.50;;;;;;5015442;28;20030;-75
2023/05/30 05:35:24;;;;;;;9.15;3.20;;;;;;;;;;5008979;28;20057;-72
2023/05/30 05:37:50;;;;;;;11.07;3.25;;;27.20;30.20;;;;;;5020101;28;20387;-73
2023/05/30 05:40:16;;;;;;;6.88;3.08;;;27.90;27.60;;;;;;5021251;28;20097;-73
2023/05/30 05:42:42;;;;;;;10.73;3.42;;;28.40;27.50;;;;;;5029320;28;20036;-74
2023/05/30 05:45:08;;;;;;;8.45;3.13;;;28.90;26.80;;;;;;5017656;28;20030;-73
2023/05/30 05:47:34;;;;;;;7.95;2.65;;;28.70;26.00;;;;;;5026337;28;20528;-74
2023/05/30 05:50:00;;;;;;;5.45;2.92;;;29.00;25.10;;;;;;5021853;28;20159;-74
2023/05/30 05:52:26;;;;;;;5.80;2.75;;;27.80;26.90;;;;;;5019038;28;20388;-75
2023/05/30 05:54:52;;;;;;;5.25;2.78;;;28.70;26.90;;;;;;5028268;28;20564;-74
2023/05/30 05:57:18;;;;;;;9.60;3.00;;;;;;;;;;5014743;28;20653;-74
2023/05/30 05:59:44;;;;;;;10.38;3.53;;;;;;;;;;5023886;28;20025;-75
2023/05/30 06:02:10;;;;;;;9.77;3.20;;;;;;;;;;5022576;28;20060;-75
2023/05/30 06:04:36;;;;;;;7.05;2.47;;;27.00;27.90;;;;;;5016460;28;20026;-77
2023/05/30 06:07:02;;;;;;;6.60;2.72;;;27.50;26.80;;;;;;5027258;28;20037;-76
2023/05/30 06:09:31;;;;;;;5.78;3.05;;;27.60;27.20;;;;;;5016307;28;20130;-75
2023/05/30 06:11:58;;;;;;;7.15;2.80;;;28.70;26.10;;;;;;5021843;28;20025;-75
2023/05/30 06:14:23;;;;;;;6.80;3.00;;;30.20;24.70;;;;;;5023929;28;20029;-75
2023/05/30 06:16:49;;;;;;;13.18;4.32;;;30.00;24.10;;;;;;5014633;28;20088;-75
2023/05/30 06:19:15;;;;;;;6.63;3.20;;;30.30;24.60;;;;;;5014252;28;20025;-76
2023/05/30 06:21:40;;;;;;;6.68;3.10;;;30.40;24.30;;;;;;5024483;28;20026;-75
2023/05/30 06:24:06;;;;;;;9.77;3.30;;;;;;;;;;5021812;28;20025;-75
2023/05/30 06:26:32;;;;;;;7.35;2.95;;;30.90;23.30;;;;;;5017125;28;20481;-74
2023/05/30 06:28:58;;;;;;;7.40;3.20;;;;;;;;;;5009071;28;20087;-75
2023/05/30 06:31:24;;;;;;;9.18;2.88;;;;;;;;;;5015663;28;20399;-75
2023/05/30 06:33:50;;;;;;;7.20;3.00;;;;;;;;;;5020723;28;20022;-75
2023/05/30 06:36:16;;;;;;;14.10;3.40;;;29.50;25.40;;;;;;5006093;28;20075;-75
2023/05/30 06:38:42;;;;;;;7.38;2.90;;;29.80;25.50;;;;;;5015659;28;20030;-74
2023/05/30 06:41:08;;;;;;;5.03;2.28;;;30.90;24.40;;;;;;5027301;28;20132;-75
2023/05/30 06:43:33;;;;;;;8.88;2.83;;;32.00;22.80;;;;;;4994446;28;20085;-74
2023/05/30 06:46:02;;;;;;;5.57;2.33;;;32.00;22.10;;;;;;5015378;28;20029;-74
2023/05/30 06:48:28;;;;;;;5.35;2.72;;;;;;;;;;5013684;28;20106;-72
2023/05/30 06:50:55;;;;;;;7.65;2.72;;;;;;;;;;5012601;28;20555;-75
2023/05/30 06:53:21;;;;;;;6.13;2.33;;;;;;;;;;5017837;28;20029;-74
2023/05/30 06:55:47;;;;;;;8.55;2.50;;;;;;;;;;5022838;28;20169;-75
2023/05/30 06:58:13;;;;;;;6.75;2.53;;;;;;;;;;5021372;28;20029;-74
2023/05/30 07:00:39;;;;;;;4.25;2.03;;;;;;;;;;4997698;28;20432;-74
2023/05/30 07:03:05;;;;;;;9.07;2.00;;;;;;;;;;5026954;28;20079;-74
2023/05/30 07:05:31;;;;;;;6.15;1.88;;;27.50;25.80;;;;;;5016305;28;20017;-74
2023/05/30 07:07:56;;;;;;;5.97;2.33;;;27.60;25.10;;;;;;5020704;28;20558;-74
2023/05/30 07:10:22;;;;;;;4.20;1.90;;;27.60;26.20;;;;;;5023627;28;20026;-74
2023/05/30 07:12:48;;;;;;;6.43;2.30;;;29.00;24.40;;;;;;5013699;28;20030;-75
2023/05/30 07:15:13;;;;;;;7.68;1.83;;;29.00;23.90;;;;;;5012337;28;20500;-75
2023/05/30 07:17:42;;;;;;;3.70;1.30;;;28.90;23.80;;;;;;5004672;28;20466;-75
2023/05/30 07:20:08;;;;;;;6.78;1.88;;;29.40;22.20;;;;;;5043990;23;20370;-76
2023/05/30 07:22:34;;;;;;;2.60;1.50;;;29.50;22.40;;;;;;5030251;28;20341;-73
2023/05/30 07:24:59;;;;;;;5.40;2.00;;;30.00;22.00;;;;;;5013789;28;20057;-73
2023/05/30 07:27:26;;;;;;;3.47;1.27;;;;;;;;;;5024533;28;20028;-73
2023/05/30 07:29:51;;;;;;;5.63;2.13;;;28.20;23.60;;;;;;5019221;28;20026;-73
2023/05/30 07:32:17;;;;;;;6.50;2.25;;;;;;;;;;5018229;28;20535;-73
2023/05/30 07:34:43;;;;;;;5.22;1.92;;;;;;;;;;5025914;28;20104;-73
2023/05/30 07:37:09;;;;;;;4.43;1.98;;;;;;;;;;5012894;28;20369;-73
2023/05/30 07:39:35;;;;;;;7.10;2.30;;;26.90;26.00;;;;;;5031733;28;20021;-73
2023/05/30 07:42:01;;;;;;;8.10;2.47;;;27.00;26.00;;;;;;5021040;28;20022;-74
2023/05/30 07:44:27;;;;;;;7.18;1.98;;;;;;;;;;5026883;28;20033;-73
2023/05/30 07:46:53;;;;;;;5.97;1.70;;;;;;;;;;5000582;28;20030;-74
2023/05/30 07:49:20;;;;;;;3.72;1.50;;;;;;;;;;5029471;28;20018;-74
2023/05/30 07:51:46;;;;;;;4.45;1.35;;;26.70;24.10;;;;;;5020052;28;20025;-74
2023/05/30 07:54:12;;;;;;;4.60;1.60;;;;;;;;;;5021151;28;20527;-75
2023/05/30 07:56:38;;;;;;;3.15;1.45;;;;;;;;;;5026673;28;20034;-73
2023/05/30 07:59:04;;;;;;;6.03;1.60;;;;;;;;;;5016027;28;20022;-74
2023/05/30 08:01:31;;;;;;;4.57;1.50;;;;;;;;;;5032345;28;20014;-73
2023/05/30 08:03:57;;;;;;;6.05;1.60;;;;;;;;;;5024501;28;20421;-73
2023/05/30 08:06:23;;;;;;;7.45;1.80;;;;;;;;;;5026622;28;20530;-73
2023/05/30 08:08:49;;;;;;;3.03;1.58;;;;;;;;;;5017240;28;20142;-72
2023/05/30 08:11:15;;;;;;;3.25;1.55;;;;;;;;;;5017193;28;20017;-72
2023/05/30 08:13:43;;;;;;;2.67;1.30;;;;;;;;;;5026615;28;20506;-72
2023/05/30 08:16:09;;;;;;;3.10;1.35;;;;;;;;;;5024331;28;20028;-72
2023/05/30 08:18:36;;;;;;;3.20;1.50;;;;;;;;;;5018440;28;20022;-73
2023/05/30 08:21:02;;;;;;;5.88;2.20;;;;;;;;;;5028517;28;20083;-73
2023/05/30 08:23:27;;;;;;;7.40;2.00;;;26.50;24.60;;;;;;5018582;28;20022;-74
2023/05/30 08:25:55;;;;;;;5.30;1.48;;;27.20;23.50;;;;;;5006539;28;20018;-74
2023/05/30 08:28:21;;;;;;;3.28;1.55;;;27.70;22.50;;;;;;5025175;28;20075;-73
2023/05/30 08:30:48;;;;;;;3.33;1.77;;;;;;;;;;5018210;28;20447;-74
2023/05/30 08:33:15;;;;;;;7.75;2.17;;;;;;;;;;5029654;28;20030;-73
2023/05/30 08:35:41;;;;;;;4.80;2.00;;;;;;;;;;5020088;28;20124;-74
2023/05/30 08:38:07;;;;;;;3.65;1.65;;;;;;;;;;5021743;28;20101;-74
2023/05/30 08:40:34;;;;;;;3.33;1.80;;;;;;;;;;5027690;28;20021;-73
2023/05/30 08:43:00;;;;;;;4.32;1.73;;;;;;;;;;5020044;28;20392;-73
2023/05/30 08:45:26;;;;;;;5.63;1.50;;;;;;;;;;5025649;28;20025;-73
2023/05/30 08:47:54;;;;;;;5.93;1.98;;;;;;;;;;5026174;28;20025;-73
2023/05/30 08:50:21;;;;;;;4.45;1.75;;;;;;;;;;5020583;28;20025;-73
2023/05/30 08:52:50;;;;;;;4.30;1.38;;;;;;;;;;5028881;28;20030;-73
2023/05/30 08:55:17;;;;;;;6.50;1.83;;;;;;;;;;5016287;28;20029;-73
2023/05/30 08:57:46;;;;;;;4.97;1.67;;;;;;;;;;5024389;28;20034;-74
2023/05/30 09:00:16;;;;;;;5.80;1.52;;;;;;;;;;5005796;28;20166;-73
2023/05/30 09:02:45;;;;;;;7.35;2.08;;;;;;;;;;5031419;28;20026;-73
2023/05/30 09:05:15;;;;;;;4.47;1.77;;;;;;;;;;5014186;28;20109;-73
2023/05/30 09:07:43;;;;;;;8.43;2.28;;;;;;;;;;5022673;28;20033;-73
2023/05/30 09:10:09;;;;;;;4.68;1.73;;;;;;;;;;5021622;28;20484;-73
2023/05/30 09:12:35;;;;;;;6.55;2.17;;;;;;;;;;5016741;28;20481;-74
2023/05/30 09:15:02;;;;;;;5.25;2.15;;;;;;;;;;5027866;28;20029;-72
2023/05/30 09:17:28;;;;;;;10.52;1.77;;;;;;;;;;5016088;28;20108;-73
2023/05/30 09:19:54;;;;;;;7.85;2.25;;;;;;;;;;5004248;28;20155;-72
2023/05/30 09:22:20;;;;;;;7.63;1.77;;;26.60;25.20;;;;;;5024497;28;20026;-73
2023/05/30 09:24:57;;;;;;;6.53;1.75;;;27.30;23.90;;;;;;5016103;28;20032;-73
2023/05/30 09:27:24;;;;;;;3.90;1.60;;;;;;;;;;4998528;28;20029;-73
2023/05/30 09:29:50;;;;;;;2.67;1.48;;;;;;;;;;5023610;28;20022;-73
2023/05/30 09:32:16;;;;;;;4.68;1.50;;;;;;;;;;5023921;28;20025;-73
2023/05/30 09:34:52;;;;;;;7.35;2.47;;;;;;;;;;5016151;28;20022;-72
2023/05/30 09:37:18;;;;;;;5.70;1.83;;;;;;;;;;5015218;28;20070;-72
2023/05/30 09:40:03;;;;;;;11.07;2.55;;;;;;;;;;5024180;28;20010;-73
2023/05/30 09:42:52;;;;;;;6.25;2.10;;;;;;;;;;5025541;28;20037;-73
2023/05/30 09:45:22;;;;;;;6.53;1.98;;;;;;;;;;4997952;28;20511;-74
2023/05/30 09:47:50;;;;;;;3.78;1.58;;;26.40;25.30;;;;;;5025771;28;20022;-74
2023/05/30 09:50:21;;;;;;;4.47;2.70;;;26.90;25.30;;;;;;5022203;28;20717;-74
2023/05/30 09:52:51;;;;;;;;;;;;;;;;;;5014427;28;20392;-72
2023/05/30 09:55:18;;;;;;;8.82;2.13;;;;;;;;;;4992746;28;19909;-72
2023/05/30 09:57:48;;;;;;;4.68;2.20;;;;;;;;;;5016553;28;20029;-72
2023/05/30 10:00:15;;;;;;;3.42;1.58;;;;;;;;;;5018153;28;20516;-71
2023/05/30 10:02:53;;;;;;;4.30;2.38;;;;;;;;;;5024180;28;20403;-72
2023/05/30 10:05:22;;;;;;;5.10;1.48;;;;;;;;;;5021937;28;20101;-73
2023/05/30 10:07:49;;;;;;;7.25;1.30;;;;;;;;;;5016616;28;20652;-73
2023/05/30 10:10:16;;;;;;;4.75;1.77;;;;;;;;;;5025912;28;20029;-73
2023/05/30 10:12:43;;;;;;;7.22;1.90;;;;;;;;;;5018707;28;20032;-72
2023/05/30 10:15:10;;;;;;;5.63;1.60;;;;;;;;;;5026235;28;20063;-72
2023/05/30 10:17:37;;;;;;;5.38;1.40;;;;;;;;;;5015263;28;20083;-73
2023/05/30 10:20:07;;;;;;;7.00;2.30;;;;;;;;;;5019945;28;20045;-73
2023/05/30 10:22:40;;;;;;;4.45;1.63;;;;;;;;;;5025157;28;20025;-72
2023/05/30 10:25:08;;;;;;;3.55;1.52;;;;;;;;;;5014445;28;20034;-72
2023/05/30 10:27:38;;;;;;;9.90;1.60;;;;;;;;;;5006563;28;20395;-73
2023/05/30 10:30:08;;;;;;;4.90;2.00;;;;;;;;;;5021551;28;20013;-73
2023/05/30 10:32:36;;;;;;;3.38;1.50;;;;;;;;;;5016665;28;20018;-73
2023/05/30 10:35:08;;;;;;;5.85;2.15;;;;;;;;;;5027510;28;20638;-73
2023/05/30 10:37:35;;;;;;;;;;;;;;;;;;5018659;28;20013;-73
2023/05/30 10:40:06;;;;;;;6.30;2.10;;;;;;;;;;5022629;28;19905;-73
2023/05/30 10:42:41;;;;;;;7.57;1.75;;;;;;;;;;5024999;28;20052;-73
2023/05/30 10:45:14;;;;;;;4.20;1.67;;;;;;;;;;5014501;28;20085;-73
2023/05/30 10:47:46;;;;;;;4.82;1.58;;;;;;;;;;5023626;28;20076;-71
2023/05/30 10:50:24;;;;;;;4.00;1.60;;;;;;;;;;5022693;28;20029;-72
2023/05/30 10:52:53;;;;;;;2.53;1.58;;;;;;;;;;5016651;28;20546;-73
2023/05/30 10:55:19;;;;;;;4.18;1.55;;;;;;;;;;5011849;28;20049;-73
2023/05/30 10:57:45;;;;;;;8.32;1.63;;;;;;;;;;5013269;28;20025;-74
2023/05/30 11:00:18;;;;;;;4.35;1.58;;;;;;;;;;5013314;28;20033;-74
2023/05/30 11:02:49;;;;;;;9.80;2.00;;;;;;;;;;5013156;28;20110;-74
2023/05/30 11:05:18;;;;;;;3.38;1.50;;;;;;;;;;5013309;28;20076;-74
2023/05/30 11:07:45;;;;;;;6.97;2.75;;;;;;;;;;5011105;28;20544;-74
2023/05/30 11:10:12;;;;;;;12.63;2.08;;;;;;;;;;5010734;28;20057;-74
2023/05/30 11:12:45;;;;;;;6.13;1.65;;;;;;;;;;4994947;28;20435;-74
2023/05/30 11:15:17;;;;;;;4.70;1.38;;;;;;;;;;5011897;28;20070;-74
2023/05/30 11:17:43;;;;;;;6.00;1.40;;;;;;;;;;5010538;28;20053;-74
2023/05/30 11:20:14;;;;;;;4.18;1.48;;;;;;;;;;4996909;28;20029;-74
2023/05/30 11:22:41;;;;;;;5.38;1.42;;;;;;;;;;5014848;28;20076;-74
2023/05/30 11:25:33;;;;;;;5.07;1.50;;;;;;;;;;5015077;28;20057;-74
2023/05/30 11:28:12;;;;;;;4.18;1.70;;;;;;;;;;4994111;28;20037;-74
2023/05/30 11:30:38;;;;;;;6.00;1.80;;;;;;;;;;5014807;28;20045;-74
2023/05/30 11:33:05;;;;;;;5.40;1.98;;;;;;;;;;5014763;28;20108;-73
2023/05/30 11:35:34;;;;;;;3.53;1.50;;;;;;;;;;4996772;28;20032;-73
2023/05/30 11:38:01;;;;;;;6.80;2.25;;;;;;;;;;5013832;28;20026;-73
2023/05/30 11:40:28;;;;;;;4.32;1.23;;;;;;;;;;5014713;28;20109;-73
2023/05/30 11:42:54;;;;;;;8.70;2.08;;;;;;;;;;5025314;28;20495;-73
2023/05/30 11:45:24;;;;;;;6.05;2.03;;;;;;;;;;5023827;28;20499;-73
2023/05/30 11:47:50;;;;;;;5.30;1.65;;;;;;;;;;5013503;28;20416;-73
2023/05/30 11:50:16;;;;;;;6.47;1.92;;;;;;;;;;5029501;28;20037;-74
2023/05/30 11:52:43;;;;;;;3.88;1.35;;;;;;;;;;5016673;28;20500;-74
2023/05/30 11:55:09;;;;;;;4.30;1.48;;;;;;;;;;5034167;28;20082;-73
2023/05/30 11:57:35;;;;;;;6.68;2.15;;;;;;;;;;5027853;28;20029;-74
2023/05/30 12:00:02;;;;;;;4.65;1.80;;;;;;;;;;5013954;28;20057;-73
2023/05/30 12:02:28;;;;;;;4.15;1.70;;;;;;;;;;4995441;28;20049;-73
2023/05/30 12:05:01;;;;;;;5.78;1.77;;;;;;;;;;5012658;28;20025;-73
2023/05/30 12:07:28;;;;;;;6.60;2.42;;;;;;;;;;5016384;28;20446;-74
2023/05/30 12:09:54;;;;;;;5.75;1.80;;;;;;;;;;5009659;28;20024;-74
2023/05/30 12:12:20;;;;;;;5.05;1.98;;;;;;;;;;5017735;28;20022;-74
2023/05/30 12:14:53;;;;;;;10.70;2.10;;;;;;;;;;4994975;28;20029;-72
2023/05/30 12:17:20;;;;;;;5.45;1.58;;;;;;;;;;5011477;28;20037;-72
2023/05/30 12:19:46;;;;;;;7.68;1.52;;;;;;;;;;5013966;28;20029;-73
2023/05/30 12:22:15;;;;;;;3.92;1.65;;;;;;;;;;5013973;28;20033;-72
2023/05/30 12:24:41;;;;;;;3.13;1.45;;;;;;;;;;5014694;28;20057;-72
2023/05/30 12:27:15;;;;;;;4.95;1.70;;;;;;;;;;5032907;28;20022;-72
2023/05/30 12:29:41;;;;;;;4.53;1.80;;;;;;;;;;5033009;28;20521;-73
2023/05/30 12:32:07;;;;;;;6.55;2.25;;;;;;;;;;5033061;28;20048;-73
2023/05/30 12:34:43;;;;;;;10.85;1.85;;;;;;;;;;5033261;28;20084;-73
2023/05/30 12:37:13;;;;;;;3.95;1.60;;;;;;;;;;5032623;28;20032;-72
2023/05/30 12:39:57;;;;;;;4.50;2.03;;;;;;;;;;5015409;28;20505;-73
2023/05/30 12:42:26;;;;;;;6.30;2.30;;;;;;;;;;5032055;28;20021;-73
2023/05/30 12:44:54;;;;;;;3.50;1.50;;;;;;;;;;5033131;28;20024;-72
2023/05/30 12:47:20;;;;;;;3.05;1.65;;;;;;;;;;5032572;28;20071;-72
2023/05/30 12:49:46;;;;;;;4.07;1.73;;;;;;;;;;5033169;28;20439;-73
2023/05/30 12:52:13;;;;;;;6.30;1.80;;;;;;;;;;5033190;28;20083;-72
2023/05/30 12:54:43;;;;;;;4.78;1.85;;;;;;;;;;5032978;28;20033;-73
2023/05/30 12:57:10;;;;;;;3.25;1.60;;;;;;;;;;5032290;28;20056;-73
2023/05/30 12:59:37;;;;;;;6.40;1.95;;;;;;;;;;5032991;28;20497;-73
2023/05/30 13:02:03;;;;;;;8.00;2.05;;;;;;;;;;5015072;28;20112;-73
2023/05/30 13:04:30;;;;;;;4.82;1.92;;;;;;;;;;5032301;28;20029;-73
2023/05/30 13:06:56;;;;;;;5.30;1.70;;;;;;;;;;5032434;28;20524;-73
2023/05/30 13:09:22;;;;;;;4.45;1.90;;;;;;;;;;5032032;28;20030;-74
2023/05/30 13:11:48;;;;;;;5.18;1.67;;;;;;;;;;5032498;28;20049;-73
2023/05/30 13:14:15;;;;;;;3.97;1.90;;;;;;;;;;5032693;28;20022;-73
2023/05/30 13:16:42;;;;;;;4.03;1.55;;;;;;;;;;5032650;28;20407;-73
2023/05/30 13:19:10;;;;;;;3.70;1.70;;;;;;;;;;5031923;28;20040;-73
2023/05/30 13:21:41;;;;;;;6.70;1.73;;;;;;;;;;5063083;23;20052;-76
2023/05/30 13:24:07;;;;;;;8.85;2.10;;;;;;;;;;5052141;28;20051;-76
2023/05/30 13:26:34;;;;;;;7.03;1.90;;;;;;;;;;5052176;28;20104;-76
2023/05/30 13:29:03;;;;;;;8.45;1.92;;;;;;;;;;5051770;28;20075;-76
2023/05/30 13:31:29;;;;;;;5.40;2.05;;;;;;;;;;5052310;28;20020;-76
2023/05/30 13:33:56;;;;;;;4.50;1.90;;;;;;;;;;5052105;28;20117;-75
2023/05/30 13:36:25;;;;;;;6.10;2.00;;;;;;;;;;5052150;28;20029;-76
2023/05/30 13:38:51;;;;;;;5.72;2.30;;;;;;;;;;5051104;28;20028;-75
2023/05/30 13:41:17;;;;;;;7.72;1.90;;;;;;;;;;5050904;28;20029;-76
2023/05/30 13:43:43;;;;;;;3.67;1.67;;;;;;;;;;5032271;28;20479;-75
2023/05/30 13:46:09;;;;;;;5.30;2.08;;;;;;;;;;5052207;28;20035;-76
2023/05/30 13:48:35;;;;;;;3.83;1.70;;;;;;;;;;5050979;28;20029;-76
2023/05/30 13:51:01;;;;;;;5.38;2.20;;;;;;;;;;5052100;28;20052;-76
2023/05/30 13:53:27;;;;;;;3.47;1.50;;;;;;;;;;5051680;28;20024;-76
2023/05/30 13:55:53;;;;;;;5.05;1.60;;;;;;;;;;5051770;28;20021;-77
2023/05/30 13:58:20;;;;;;;4.15;1.60;;;;;;;;;;5050654;28;20062;-77
2023/05/30 14:00:47;;;;;;;6.80;2.25;;;;;;;;;;5033820;28;20116;-76
2023/05/30 14:03:14;;;;;;;3.40;1.50;;;;;;;;;;5051786;28;20036;-76
2023/05/30 14:05:40;;;;;;;5.28;1.85;;;;;;;;;;5051921;28;20103;-75
2023/05/30 14:08:06;;;;;;;6.15;1.90;;;;;;;;;;5032944;28;20495;-76
2023/05/30 14:10:32;;;;;;;4.15;1.80;;;;;;;;;;5051406;28;20107;-77
2023/05/30 14:12:58;;;;;;;5.05;1.77;;;;;;;;;;5051414;28;20509;-76
2023/05/30 14:15:30;;;;;;;4.95;1.85;;;;;;;;;;5033344;28;20391;-74
2023/05/30 14:17:57;;;;;;;5.65;2.33;;;;;;;;;;5050948;28;20474;-77
2023/05/30 14:20:23;;;;;;;4.88;1.92;;;;;;;;;;5051306;28;20078;-77
2023/05/30 14:22:49;;;;;;;4.60;1.90;;;;;;;;;;5051519;28;20017;-77
2023/05/30 14:25:15;;;;;;;3.55;1.55;;;;;;;;;;5051263;28;20025;-77
2023/05/30 14:27:43;;;;;;;3.67;1.67;;;;;;;;;;5050370;28;20028;-76